Flight Track Log - Related Links

Times and Time Zones

All times are in EDT time to prevent confusion due to time zone crossing. See the SWA3034 flight status page for this flight to view local times or setup timezone preferences in your user account.

Time Position Orientation Groundspeed Altitude Reporting Facility
EDT Latitude Longitude Course Direction KTS MPH feet Rate Location/Type
Sat 08:42:16 AM 32.8667 -96.8667 320° Northwest 157 181 1,400  Level Dallas / Fort Worth TRACON
Sat 08:43:16 AM 32.9000 -96.9000 320° Northwest 225 259 4,500 3,579 Climbing Dallas / Fort Worth TRACON
Sat 08:44:10 AM 32.9333 -96.9500 308° West 211 243 8,200 3,579 Climbing Dallas / Fort Worth TRACON
Sat 08:45:10 AM 32.9333 -97.0333 270° West 263 303 11,300 2,595 Climbing Dallas / Fort Worth TRACON
Sat 08:47:15 AM 32.9125 -97.2353 263° West 276 318 16,200 2,432 Climbing Fort Worth Center
Sat 08:48:15 AM 32.9022 -97.3342 263° West 331 381 18,800 2,600 Climbing Fort Worth Center
Sat 08:49:15 AM 32.8917 -97.4581 264° West 342 394 21,400 1,900 Climbing Fort Worth Center
Sat 08:50:15 AM 32.8897 -97.5742 269° West 351 404 22,600 1,300 Climbing Fort Worth Center
Sat 08:51:15 AM 32.9228 -97.6783 291° West 356 410 24,000 1,950 Climbing Fort Worth Center
Sat 08:52:15 AM 32.9664 -97.8072 292° West 382 440 26,500 2,300 Climbing Fort Worth Center
Sat 08:53:15 AM 33.0014 -97.9114 292° West 387 445 28,600 2,200 Climbing Fort Worth Center
Sat 08:54:15 AM 33.0406 -98.0378 290° West 375 432 30,900 2,100 Climbing Fort Worth Center
Sat 08:55:15 AM 33.0756 -98.1375 293° West 364 419 32,800 1,800 Climbing Fort Worth Center
Sat 08:56:15 AM 33.1122 -98.2542 291° West 353 406 34,500 1,500 Climbing Fort Worth Center
Sat 08:57:15 AM 33.1450 -98.3514 292° West 353 406 35,800 750 Climbing Fort Worth Center
Sat 08:58:15 AM 33.1817 -98.4683 291° West 347 399 36,000 100 Climbing Fort Worth Center
Sat 08:59:15 AM 33.2183 -98.5756 292° West 347 399 36,000  Level Fort Worth Center
Sat 09:00:15 AM 33.2506 -98.6803 290° West 352 405 36,000  Level Fort Worth Center
Sat 09:01:15 AM 33.2850 -98.7878 291° West 352 405 36,000  Level Fort Worth Center
Sat 09:02:15 AM 33.3214 -98.8950 292° West 352 405 36,000  Level Fort Worth Center
Sat 09:03:15 AM 33.3533 -99.0025 290° West 352 405 36,000  Level Fort Worth Center
Sat 09:04:15 AM 33.3875 -99.1128 290° West 352 405 36,000  Level Fort Worth Center
Sat 09:05:15 AM 33.4236 -99.2228 291° West 352 405 36,000  Level Fort Worth Center
Sat 09:06:15 AM 33.4594 -99.3306 292° West 352 405 36,000  Level Fort Worth Center
Sat 09:07:15 AM 33.4933 -99.4411 290° West 352 405 36,000  Level Fort Worth Center
Sat 09:08:15 AM 33.5289 -99.5514 291° West 352 405 36,000  Level Fort Worth Center
Sat 09:09:15 AM 33.5625 -99.6594 290° West 352 405 36,000  Level Fort Worth Center
Sat 09:10:15 AM 33.5958 -99.7725 290° West 352 405 36,000  Level Fort Worth Center
Sat 09:11:15 AM 33.6292 -99.8831 290° West 352 405 36,000  Level Fort Worth Center
Sat 09:12:15 AM 33.6625 -99.9964 289° West 352 405 36,000  Level Fort Worth Center
Sat 09:13:15 AM 33.6978 -100.1047 291° West 352 405 36,000  Level Fort Worth Center
Sat 09:14:15 AM 33.7328 -100.2158 291° West 352 405 36,000  Level Fort Worth Center
Sat 09:15:15 AM 33.7658 -100.3242 290° West 352 405 36,000  Level Fort Worth Center
Sat 09:16:15 AM 33.7986 -100.4378 289° West 352 405 36,000  Level Fort Worth Center
Sat 09:17:15 AM 33.8333 -100.5517 290° West 352 405 36,000  Level Fort Worth Center
Sat 09:18:15 AM 33.8683 -100.6603 291° West 352 405 36,000  Level Fort Worth Center
Sat 09:19:15 AM 33.8986 -100.7717 288° West 352 405 36,000  Level Fort Worth Center
Sat 09:20:15 AM 33.9331 -100.8856 290° West 352 405 36,000  Level Fort Worth Center
Sat 09:21:15 AM 33.9675 -100.9972 290° West 352 405 36,000  Level Fort Worth Center
Sat 09:22:15 AM 33.9958 -101.1011 288° West 363 418 36,000  Level Fort Worth Center
Sat 09:23:15 AM 34.0358 -101.2281 291° West 365 420 36,000  Level Fort Worth Center
Sat 09:24:15 AM 34.0658 -101.3347 289° West 370 426 36,000  Level Fort Worth Center
Sat 09:25:15 AM 34.1017 -101.4592 289° West 364 419 36,000  Level Fort Worth Center
Sat 09:26:15 AM 34.1353 -101.5736 290° West 369 425 36,000  Level Fort Worth Center
Sat 09:27:15 AM 34.1689 -101.6908 289° West 369 425 36,000  Level Fort Worth Center
Sat 09:29:30 AM 34.2428 -101.9453 289° West 364 419 36,000  Level Albuquerque Center
Sat 09:30:31 AM 34.2756 -102.0614 289° West 364 419 36,000  Level Albuquerque Center
Sat 09:31:32 AM 34.3094 -102.1772 290° West 364 419 36,000  Level Albuquerque Center
Sat 09:32:32 AM 34.3425 -102.2947 289° West 366 421 36,000  Level Albuquerque Center
Sat 09:33:33 AM 34.3747 -102.4106 289° West 366 421 36,000  Level Albuquerque Center
Sat 09:34:34 AM 34.4075 -102.5272 289° West 365 420 36,000  Level Albuquerque Center
Sat 09:35:34 AM 34.4411 -102.6433 289° West 365 420 36,000  Level Albuquerque Center
Sat 09:36:35 AM 34.4739 -102.7589 289° West 364 419 36,000  Level Albuquerque Center
Sat 09:37:36 AM 34.5039 -102.8878 286° West 360 414 36,000  Level Albuquerque Center
Sat 09:38:37 AM 34.5158 -103.0097 277° West 360 414 36,000  Level Albuquerque Center
Sat 09:39:37 AM 34.5311 -103.1289 279° West 356 410 36,000  Level Albuquerque Center
Sat 09:40:38 AM 34.5461 -103.2492 279° West 357 411 36,000  Level Albuquerque Center
Sat 09:41:39 AM 34.5603 -103.3708 278° West 359 413 36,000  Level Albuquerque Center
Sat 09:42:40 AM 34.5736 -103.4922 278° West 361 415 36,000  Level Albuquerque Center
Sat 09:43:41 AM 34.5903 -103.6150 279° West 363 418 36,000  Level Albuquerque Center
Sat 09:44:41 AM 34.6211 -103.7311 288° West 359 413 36,000  Level Albuquerque Center
Sat 09:45:42 AM 34.6489 -103.8489 286° West 359 413 36,000  Level Albuquerque Center
Sat 09:46:43 AM 34.6781 -103.9661 287° West 358 412 36,000  Level Albuquerque Center
Sat 09:47:44 AM 34.7067 -104.0842 286° West 359 413 36,000  Level Albuquerque Center
Sat 09:48:45 AM 34.7361 -104.2031 287° West 361 415 36,000  Level Albuquerque Center
Sat 09:49:46 AM 34.7644 -104.3222 286° West 361 415 36,000  Level Albuquerque Center
Sat 09:50:46 AM 34.7936 -104.4422 287° West 364 419 36,000  Level Albuquerque Center
Sat 09:51:47 AM 34.8217 -104.5617 286° West 363 418 36,000  Level Albuquerque Center
Sat 09:52:48 AM 34.8425 -104.6839 282° West 364 419 36,000  Level Albuquerque Center
Sat 09:53:49 AM 34.8533 -104.8075 276° West 363 418 36,000  Level Albuquerque Center
Sat 09:54:50 AM 34.8642 -104.9303 276° West 362 417 36,000  Level Albuquerque Center
Sat 09:55:51 AM 34.8764 -105.0542 277° West 364 419 36,000 -393 Level Albuquerque Center
Sat 09:56:52 AM 34.8858 -105.1772 275° West 363 418 35,200 -1,918 Descending Albuquerque Center
Sat 09:57:53 AM 34.8986 -105.3036 277° West 369 425 32,100 -3,000 Descending Albuquerque Center
Sat 09:58:54 AM 34.9097 -105.4306 276° West 373 429 29,100 -3,372 Descending Albuquerque Center
Sat 09:59:54 AM 34.9219 -105.5550 277° West 369 425 25,300 -3,580 Descending Albuquerque Center
Sat 10:00:53 AM 34.9286 -105.6756 274° West 375 432 22,000 -3,393 Descending Albuquerque Center
Sat 10:01:56 AM 34.9411 -105.8081 277° West 369 425 18,400 -2,903 Descending Albuquerque Center
Sat 10:02:57 AM 34.9486 -105.9108 275° West 362 417 16,000 -2,262 Descending Albuquerque Center
Sat 10:03:58 AM 34.9575 -106.0300 275° West 356 410 13,800 -1,426 Descending Albuquerque Center
Sat 10:04:59 AM 34.9569 -106.1614 270° West 327 376 13,100 -823 Descending Albuquerque Center
Sat 10:06:02 AM 34.9575 -106.2722 270° West 318 366 12,100 -1,024 Descending Albuquerque Center
Sat 10:07:02 AM 34.9600 -106.3714 272° West 308 354 11,000 -545 Descending Albuquerque Center
Sat 10:08:03 AM 34.9569 -106.4572 268° West 275 316 11,000 -149 Level Albuquerque Center
Sat 10:09:03 AM 34.9517 -106.5306 265° West 164 189 10,700 -1,140 Descending Albuquerque Center
Sat 10:10:04 AM 34.9503 -106.5828 268° West 154 177 8,700 -1,820 Descending Albuquerque Center
Sat 10:11:05 AM 34.9681 -106.6350 293° West 166 191 7,000 -1,388 Descending Albuquerque Center
Sat 10:12:05 AM 35.0017 -106.6575 331° Northwest 162 186 5,900 -829 Descending Albuquerque Center
Sat 10:13:08 AM 35.0300 -106.6211 46° Northeast 159 183 5,300 -571 Descending Albuquerque Center

Login

Don't have an account? Register now (free) for customized features, flight alerts, and more!